createdAt,value
2022-08-07T00:01:44.232Z,5.50
2022-08-07T00:04:09.648Z,7.20
2022-08-07T00:06:51.408Z,7.70
2022-08-07T00:09:22.201Z,6.30
2022-08-07T00:11:55.536Z,7.50
2022-08-07T00:14:25.485Z,6.90
2022-08-07T00:16:52.828Z,7.00
2022-08-07T00:19:21.773Z,6.60
2022-08-07T00:22:02.171Z,6.80
2022-08-07T00:24:31.614Z,5.60
2022-08-07T00:27:07.215Z,7.40
2022-08-07T00:29:37.112Z,6.80
2022-08-07T00:32:05.825Z,6.10
2022-08-07T00:34:35.392Z,4.90
2022-08-07T00:37:04.923Z,6.60
2022-08-07T00:39:32.944Z,6.20
2022-08-07T00:42:02.079Z,5.60
2022-08-07T00:44:33.114Z,5.70
2022-08-07T00:47:06.476Z,5.80
2022-08-07T00:50:19.651Z,5.70
2022-08-07T00:52:33.200Z,7.20
2022-08-07T00:55:04.759Z,6.50
2022-08-07T00:57:38.064Z,7.20
2022-08-07T01:00:23.146Z,5.90
2022-08-07T01:02:51.395Z,6.20
2022-08-07T01:05:20.432Z,8.80
2022-08-07T01:07:51.962Z,5.70
2022-08-07T01:10:20.082Z,5.80
2022-08-07T01:12:54.018Z,7.50
2022-08-07T01:16:00.516Z,6.50
2022-08-07T01:18:11.216Z,5.90
2022-08-07T01:20:58.453Z,6.90
2022-08-07T01:23:38.573Z,6.00
2022-08-07T01:26:08.412Z,7.80
2022-08-07T01:28:41.780Z,6.70
2022-08-07T01:31:15.459Z,8.00
2022-08-07T01:33:54.006Z,8.30
2022-08-07T01:36:33.386Z,5.90
2022-08-07T01:39:01.817Z,9.00
2022-08-07T01:41:38.060Z,4.70
2022-08-07T01:44:06.031Z,5.90
2022-08-07T01:46:34.002Z,6.80
2022-08-07T01:49:02.399Z,5.90
2022-08-07T01:52:04.299Z,5.70
2022-08-07T01:54:33.190Z,8.40
2022-08-07T01:57:27.487Z,6.80
2022-08-07T01:59:57.737Z,5.70
2022-08-07T02:03:18.553Z,5.90
2022-08-07T02:05:59.885Z,6.10
2022-08-07T02:08:29.521Z,5.30
2022-08-07T02:10:59.351Z,5.70
2022-08-07T02:13:56.320Z,5.60
2022-08-07T02:16:19.948Z,6.60
2022-08-07T02:18:56.363Z,5.70
2022-08-07T02:21:24.735Z,5.90
2022-08-07T02:23:53.231Z,6.00
2022-08-07T02:26:34.388Z,6.20
2022-08-07T02:29:03.198Z,6.20
2022-08-07T02:31:32.724Z,7.70
2022-08-07T02:34:11.255Z,4.50
2022-08-07T02:36:45.959Z,5.80
2022-08-07T02:39:17.176Z,6.40
2022-08-07T02:42:03.378Z,6.80
2022-08-07T02:44:39.730Z,5.40
2022-08-07T02:47:19.524Z,6.80
2022-08-07T02:49:58.431Z,7.40
2022-08-07T02:52:39.609Z,7.50
2022-08-07T02:56:04.195Z,6.70
2022-08-07T02:58:21.585Z,5.80
2022-08-07T03:00:51.629Z,6.70
2022-08-07T03:03:22.618Z,6.70
2022-08-07T03:05:53.572Z,8.70
2022-08-07T03:08:26.760Z,7.30
2022-08-07T03:10:55.909Z,7.80
2022-08-07T03:13:23.084Z,7.20
2022-08-07T03:15:56.559Z,6.60
2022-08-07T03:18:34.199Z,6.80
2022-08-07T03:21:08.250Z,7.60
2022-08-07T03:24:21.220Z,6.90
2022-08-07T03:26:28.127Z,6.80
2022-08-07T03:28:57.240Z,6.60
2022-08-07T03:31:42.923Z,6.40
2022-08-07T03:34:18.445Z,6.60
2022-08-07T03:36:51.173Z,5.80
2022-08-07T03:39:46.345Z,5.90
2022-08-07T03:42:09.259Z,7.80
2022-08-07T03:44:37.737Z,5.90
2022-08-07T03:47:10.930Z,6.50
2022-08-07T03:49:39.379Z,6.60
2022-08-07T03:52:15.930Z,7.30
2022-08-07T03:54:54.986Z,8.00
2022-08-07T03:58:08.885Z,7.20
2022-08-07T04:00:16.981Z,6.90
2022-08-07T04:02:49.486Z,7.00
2022-08-07T04:05:19.881Z,6.90
2022-08-07T04:07:51.707Z,6.40
2022-08-07T04:10:20.120Z,7.80
2022-08-07T04:12:50.331Z,7.20
2022-08-07T04:15:18.411Z,7.30
2022-08-07T04:18:56.633Z,7.40
2022-08-07T04:20:35.126Z,7.40
2022-08-07T04:23:06.410Z,7.00
2022-08-07T04:25:39.416Z,7.30
2022-08-07T04:28:10.339Z,6.60
2022-08-07T04:30:55.205Z,7.00
2022-08-07T04:33:25.187Z,6.60
2022-08-07T04:35:54.078Z,6.60
2022-08-07T04:38:21.924Z,6.60
2022-08-07T04:40:52.732Z,8.30
2022-08-07T04:44:10.470Z,6.90
2022-08-07T04:46:34.690Z,7.20
2022-08-07T04:49:27.732Z,7.80
2022-08-07T04:52:28.876Z,7.50
2022-08-07T04:58:11.508Z,6.50
2022-08-07T04:59:07.729Z,7.00
2022-08-07T05:01:50.610Z,7.90
2022-08-07T05:04:43.990Z,7.40
2022-08-07T05:07:30.672Z,7.10
2022-08-07T05:10:19.655Z,6.90
2022-08-07T05:14:51.873Z,5.90
2022-08-07T05:16:17.549Z,8.20
2022-08-07T05:18:53.253Z,7.00
2022-08-07T05:21:59.379Z,6.60
2022-08-07T05:24:17.109Z,7.50
2022-08-07T05:26:46.535Z,8.20
2022-08-07T05:29:16.722Z,8.00
2022-08-07T05:31:51.264Z,7.80
2022-08-07T05:34:21.185Z,7.60
2022-08-07T05:36:55.838Z,7.20
2022-08-07T05:40:05.434Z,8.40
2022-08-07T05:42:13.372Z,6.70
2022-08-07T05:44:52.877Z,6.80
2022-08-07T05:47:38.344Z,7.20
2022-08-07T05:50:16.478Z,9.10
2022-08-07T05:52:43.664Z,7.00
2022-08-07T05:55:13.607Z,8.40
2022-08-07T05:57:42.930Z,6.40
2022-08-07T06:00:16.692Z,8.70
2022-08-07T06:02:49.107Z,6.50
2022-08-07T06:05:17.874Z,7.40
2022-08-07T06:08:14.682Z,7.00
2022-08-07T06:10:36.054Z,6.20
2022-08-07T06:13:03.122Z,6.50
2022-08-07T06:15:39.432Z,6.90
2022-08-07T06:18:12.203Z,6.70
2022-08-07T06:20:50.276Z,6.50
2022-08-07T06:24:37.160Z,6.70
2022-08-07T06:26:16.657Z,6.60
2022-08-07T06:28:54.341Z,7.30
2022-08-07T06:31:24.262Z,7.50
2022-08-07T06:34:09.394Z,7.60
2022-08-07T06:36:36.979Z,5.70
2022-08-07T06:40:13.545Z,7.10
2022-08-07T06:42:09.186Z,6.10
2022-08-07T06:44:39.784Z,6.00
2022-08-07T06:47:10.178Z,6.60
2022-08-07T06:49:51.070Z,6.90
2022-08-07T06:52:31.429Z,6.40
2022-08-07T06:55:31.950Z,4.90
2022-08-07T06:57:57.088Z,6.60
2022-08-07T07:00:24.824Z,6.80
2022-08-07T07:02:57.755Z,5.30
2022-08-07T07:06:03.685Z,7.30
2022-08-07T07:08:18.437Z,5.70
2022-08-07T07:10:56.541Z,6.10
2022-08-07T07:13:43.674Z,5.40
2022-08-07T07:16:23.833Z,7.10
2022-08-07T07:19:11.185Z,4.90
2022-08-07T07:22:11.275Z,5.50
2022-08-07T07:24:43.133Z,5.40
2022-08-07T07:27:35.554Z,6.80
2022-08-07T07:30:32.355Z,7.90
2022-08-07T07:33:01.193Z,5.60
2022-08-07T07:35:33.651Z,4.90
2022-08-07T07:38:13.765Z,5.30
2022-08-07T07:40:41.978Z,5.10
2022-08-07T07:43:11.574Z,5.60
2022-08-07T07:46:36.936Z,6.00
2022-08-07T07:48:35.913Z,6.40
2022-08-07T07:51:10.578Z,5.70
2022-08-07T07:53:51.738Z,5.10
2022-08-07T07:56:30.602Z,6.00
2022-08-07T07:59:04.133Z,5.50
2022-08-07T08:02:02.171Z,4.70
2022-08-07T08:04:25.812Z,4.40
2022-08-07T08:06:56.111Z,5.40
2022-08-07T08:09:29.687Z,4.20
2022-08-07T08:12:03.082Z,5.80
2022-08-07T08:14:34.383Z,4.90
2022-08-07T08:17:56.118Z,5.80
2022-08-07T08:20:17.366Z,4.00
2022-08-07T08:23:02.545Z,4.00
2022-08-07T08:25:52.256Z,5.40
2022-08-07T08:28:38.633Z,3.70
2022-08-07T08:31:15.874Z,4.30
2022-08-07T08:33:49.376Z,4.90
2022-08-07T08:36:29.672Z,4.20
2022-08-07T08:39:01.640Z,5.20
2022-08-07T08:41:58.611Z,4.70
2022-08-07T08:44:53.016Z,5.10
2022-08-07T08:47:52.129Z,5.60
2022-08-07T08:50:39.272Z,4.60
2022-08-07T08:53:31.698Z,5.50
2022-08-07T08:56:24.605Z,5.10
2022-08-07T08:59:05.709Z,3.90
2022-08-07T09:01:59.946Z,3.90
2022-08-07T09:04:47.651Z,2.80
2022-08-07T09:07:46.562Z,4.30
2022-08-07T09:10:26.491Z,3.20
2022-08-07T09:13:38.758Z,3.70
2022-08-07T09:16:26.729Z,4.10
2022-08-07T09:19:51.866Z,4.60
2022-08-07T09:24:32.198Z,4.00
2022-08-07T09:25:39.113Z,3.10
2022-08-07T09:29:24.342Z,3.90
2022-08-07T09:31:10.646Z,3.50
2022-08-07T09:34:08.479Z,3.60
2022-08-07T09:36:42.762Z,4.30
2022-08-07T09:39:18.119Z,3.00
2022-08-07T09:42:24.889Z,3.80
2022-08-07T09:47:51.832Z,3.40
2022-08-07T09:48:06.362Z,4.50
2022-08-07T09:51:03.132Z,2.40
2022-08-07T09:53:50.103Z,3.10
2022-08-07T09:56:49.118Z,3.00
2022-08-07T10:00:00.968Z,3.90
2022-08-07T10:02:55.268Z,1.50
2022-08-07T10:06:00.135Z,2.60
2022-08-07T10:08:55.494Z,1.80
2022-08-07T10:12:02.067Z,2.60
2022-08-07T10:14:58.217Z,3.10
2022-08-07T10:18:01.434Z,2.30
2022-08-07T10:20:32.649Z,3.30
2022-08-07T10:23:11.698Z,2.40
2022-08-07T10:26:00.698Z,2.30
2022-08-07T10:28:49.771Z,3.00
2022-08-07T10:31:39.013Z,2.10
2022-08-07T10:34:32.283Z,1.60
2022-08-07T10:37:18.431Z,2.80
2022-08-07T10:40:15.398Z,1.60
2022-08-07T10:43:12.554Z,2.60
2022-08-07T10:45:57.472Z,2.40
2022-08-07T10:48:51.247Z,1.30
2022-08-07T10:52:01.410Z,2.10
2022-08-07T10:54:27.219Z,3.70
2022-08-07T10:57:08.568Z,1.80
2022-08-07T10:59:53.215Z,2.30
2022-08-07T11:02:35.608Z,2.70
2022-08-07T11:05:24.769Z,2.70
2022-08-07T11:08:29.142Z,3.20
2022-08-07T11:11:10.339Z,2.90
2022-08-07T11:14:43.411Z,2.10
2022-08-07T11:17:07.252Z,3.60
2022-08-07T11:19:56.053Z,1.90
2022-08-07T11:22:55.578Z,3.30
2022-08-07T11:25:36.257Z,2.00
2022-08-07T11:28:17.650Z,1.80
2022-08-07T11:30:59.585Z,2.30
2022-08-07T11:33:53.691Z,2.50
2022-08-07T11:36:32.824Z,2.80
2022-08-07T11:39:59.273Z,1.70
2022-08-07T11:42:29.744Z,1.60
2022-08-07T11:45:10.195Z,2.90
2022-08-07T11:47:59.586Z,1.70
2022-08-07T11:51:41.657Z,1.90
2022-08-07T11:54:22.129Z,2.30
2022-08-07T11:58:00.748Z,2.20
2022-08-07T12:00:28.413Z,2.40
2022-08-07T12:03:41.692Z,1.70
2022-08-07T12:06:37.949Z,2.20
2022-08-07T12:09:16.779Z,2.20
2022-08-07T12:12:10.192Z,1.80
2022-08-07T12:14:56.313Z,2.20
2022-08-07T12:17:37.279Z,1.80
2022-08-07T12:20:30.930Z,1.80
2022-08-07T12:23:21.574Z,2.00
2022-08-07T12:26:29.873Z,3.10
2022-08-07T12:29:37.127Z,2.00
2022-08-07T12:32:45.155Z,2.40
2022-08-07T12:35:16.318Z,1.80
2022-08-07T12:38:09.509Z,3.20
2022-08-07T12:40:48.583Z,1.10
2022-08-07T12:44:02.791Z,1.90
2022-08-07T12:46:26.245Z,1.50
2022-08-07T12:49:25.770Z,2.10
2022-08-07T12:52:12.167Z,1.50
2022-08-07T12:54:54.383Z,2.10
2022-08-07T12:57:38.828Z,1.60
2022-08-07T13:00:20.725Z,2.20
2022-08-07T13:04:02.068Z,2.10
2022-08-07T13:06:37.155Z,2.20
2022-08-07T13:10:37.379Z,1.80
2022-08-07T13:12:51.925Z,1.30
2022-08-07T13:15:38.802Z,2.70
2022-08-07T13:18:28.397Z,1.50
2022-08-07T13:21:37.797Z,1.20
2022-08-07T13:24:52.204Z,2.10
2022-08-07T13:28:10.883Z,1.50
2022-08-07T13:30:41.040Z,1.40
2022-08-07T13:34:30.139Z,1.70
2022-08-07T13:36:30.680Z,2.10
2022-08-07T13:40:33.543Z,1.40
2022-08-07T13:42:27.688Z,1.30
2022-08-07T13:45:20.900Z,1.90
2022-08-07T13:48:06.061Z,1.60
2022-08-07T13:50:44.290Z,1.60
2022-08-07T13:53:22.005Z,1.80
2022-08-07T13:55:54.689Z,2.60
2022-08-07T13:58:56.116Z,2.00
2022-08-07T14:01:26.333Z,2.20
2022-08-07T14:04:06.857Z,1.40
2022-08-07T14:06:38.586Z,2.00
2022-08-07T14:09:07.418Z,1.10
2022-08-07T14:11:53.748Z,1.20
2022-08-07T14:14:33.641Z,1.70
2022-08-07T14:17:13.025Z,1.40
2022-08-07T14:20:40.570Z,3.40
2022-08-07T14:22:48.054Z,1.40
2022-08-07T14:25:16.895Z,2.30
2022-08-07T14:28:12.568Z,2.10
2022-08-07T14:30:35.151Z,2.00
2022-08-07T14:33:08.443Z,2.20
2022-08-07T14:35:44.899Z,1.90
2022-08-07T14:38:30.792Z,1.80
2022-08-07T14:41:12.218Z,1.60
2022-08-07T14:43:57.572Z,2.20
2022-08-07T14:46:32.460Z,3.30
2022-08-07T14:49:55.834Z,1.70
2022-08-07T14:52:04.316Z,2.20
2022-08-07T14:54:41.994Z,2.30
2022-08-07T15:00:05.994Z,1.70
2022-08-07T15:02:34.642Z,1.60
2022-08-07T15:05:03.455Z,3.40
2022-08-07T15:07:51.006Z,2.80
2022-08-07T15:10:26.637Z,3.00
2022-08-07T15:12:58.486Z,1.40
2022-08-07T15:15:38.655Z,2.00
2022-08-07T15:18:14.458Z,1.70
2022-08-07T15:21:03.741Z,1.80
2022-08-07T15:25:14.124Z,2.00
2022-08-07T15:26:37.775Z,1.60
2022-08-07T15:32:02.790Z,1.20
2022-08-07T15:34:50.813Z,2.00
2022-08-07T15:43:53.214Z,1.60
2022-08-07T15:49:16.237Z,2.00
2022-08-07T15:54:31.466Z,1.80
2022-08-07T15:57:04.770Z,1.60
2022-08-07T15:59:39.309Z,1.30
2022-08-07T16:02:15.045Z,2.10
2022-08-07T16:04:44.075Z,2.40
2022-08-07T16:08:30.310Z,1.90
2022-08-07T16:10:14.968Z,2.00
2022-08-07T16:13:00.992Z,1.60
2022-08-07T16:16:06.551Z,3.40
2022-08-07T16:19:02.916Z,3.70
2022-08-07T16:22:05.570Z,1.70
2022-08-07T16:24:52.565Z,1.60
2022-08-07T16:27:40.407Z,2.90
2022-08-07T16:30:31.226Z,2.30
2022-08-07T16:34:02.860Z,3.00
2022-08-07T16:36:20.651Z,1.70
2022-08-07T16:39:33.780Z,2.00
2022-08-07T16:42:52.035Z,2.20
2022-08-07T16:46:21.255Z,2.20
2022-08-07T16:49:04.307Z,2.50
2022-08-07T16:52:51.418Z,3.00
2022-08-07T16:55:08.366Z,2.40
2022-08-07T16:58:01.083Z,3.70
2022-08-07T17:00:53.046Z,1.80
2022-08-07T17:03:58.319Z,2.10
2022-08-07T17:06:46.525Z,1.50
2022-08-07T17:10:07.049Z,1.20
2022-08-07T17:12:45.188Z,2.10
2022-08-07T17:15:44.408Z,2.10
2022-08-07T17:18:28.130Z,2.20
2022-08-07T17:20:56.097Z,1.50
2022-08-07T17:23:22.796Z,2.00
2022-08-07T17:26:23.602Z,1.80
2022-08-07T17:30:12.646Z,3.10
2022-08-07T17:32:30.423Z,2.20
2022-08-07T17:35:49.539Z,1.50
2022-08-07T17:38:23.638Z,2.10
2022-08-07T17:41:30.593Z,2.20
2022-08-07T17:44:05.854Z,3.20
2022-08-07T17:46:52.246Z,2.70
2022-08-07T17:49:23.453Z,1.20
2022-08-07T17:52:10.545Z,1.70
2022-08-07T17:54:54.037Z,1.90
2022-08-07T17:57:58.365Z,1.90
2022-08-07T18:00:34.542Z,1.70
2022-08-07T18:03:25.452Z,2.40
2022-08-07T18:06:03.031Z,2.00
2022-08-07T18:08:34.250Z,1.90
2022-08-07T18:12:16.638Z,1.80
2022-08-07T18:14:31.554Z,3.70
2022-08-07T18:18:47.543Z,5.50
2022-08-07T18:21:03.694Z,2.50
2022-08-07T18:23:57.213Z,3.40
2022-08-07T18:26:40.683Z,5.20
2022-08-07T18:30:07.391Z,4.00
2022-08-07T18:32:22.771Z,5.40
2022-08-07T18:35:08.833Z,3.40
2022-08-07T18:38:57.381Z,3.40
2022-08-07T18:40:53.764Z,2.70
2022-08-07T18:43:49.149Z,6.50
2022-08-07T18:46:29.227Z,2.80
2022-08-07T18:50:32.866Z,4.30
2022-08-07T18:52:37.376Z,4.50
2022-08-07T18:55:42.700Z,6.50
2022-08-07T18:58:29.875Z,2.30
2022-08-07T19:01:09.645Z,3.90
2022-08-07T19:04:37.465Z,3.60
2022-08-07T19:07:51.868Z,3.20
2022-08-07T19:10:31.423Z,5.00
2022-08-07T19:13:11.769Z,3.40
2022-08-07T19:16:43.050Z,6.30
2022-08-07T19:19:17.692Z,3.20
2022-08-07T19:22:17.998Z,2.90
2022-08-07T19:24:53.047Z,3.30
2022-08-07T19:28:29.232Z,3.70
2022-08-07T19:30:56.948Z,3.00
2022-08-07T19:33:13.413Z,3.60
2022-08-07T19:35:46.793Z,2.70
2022-08-07T19:38:17.654Z,2.60
2022-08-07T19:40:50.298Z,4.30
2022-08-07T19:43:50.304Z,3.40
2022-08-07T19:46:11.272Z,4.20
2022-08-07T19:48:42.173Z,3.30
2022-08-07T19:51:19.961Z,2.80
2022-08-07T19:54:31.421Z,3.90
2022-08-07T19:56:59.761Z,2.60
2022-08-07T19:59:40.847Z,4.00
2022-08-07T20:02:19.457Z,3.30
2022-08-07T20:04:50.292Z,2.80
2022-08-07T20:07:46.234Z,3.10
2022-08-07T20:10:36.538Z,3.50
2022-08-07T20:13:22.904Z,3.10
2022-08-07T20:15:53.913Z,3.60
2022-08-07T20:18:32.852Z,2.80
2022-08-07T20:21:21.502Z,3.70
2022-08-07T20:24:00.495Z,2.30
2022-08-07T20:26:32.416Z,4.30
2022-08-07T20:29:17.109Z,3.00
2022-08-07T20:31:59.766Z,2.80
2022-08-07T20:34:49.376Z,3.10
2022-08-07T20:37:20.530Z,3.70
2022-08-07T20:40:04.223Z,3.60
2022-08-07T20:42:33.405Z,4.90
2022-08-07T20:45:01.345Z,3.70
2022-08-07T20:47:56.129Z,3.00
2022-08-07T20:50:21.271Z,4.30
2022-08-07T20:52:51.863Z,3.70
2022-08-07T20:55:23.653Z,3.90
2022-08-07T20:57:59.905Z,4.40
2022-08-07T21:00:53.909Z,3.60
2022-08-07T21:03:25.708Z,4.30
2022-08-07T21:06:21.603Z,3.60
2022-08-07T21:08:57.340Z,3.70
2022-08-07T21:11:50.062Z,3.90
2022-08-07T21:14:32.522Z,3.20
2022-08-07T21:18:02.032Z,3.10
2022-08-07T21:20:05.263Z,5.10
2022-08-07T21:22:39.498Z,4.90
2022-08-07T21:25:13.133Z,3.90
2022-08-07T21:27:47.117Z,4.60
2022-08-07T21:30:17.869Z,4.00
2022-08-07T21:32:57.977Z,3.90
2022-08-07T21:36:05.023Z,5.90
2022-08-07T21:39:01.243Z,3.30
2022-08-07T21:41:38.053Z,4.10
2022-08-07T21:44:31.746Z,4.90
2022-08-07T21:47:12.286Z,3.50
2022-08-07T21:50:01.395Z,4.20
2022-08-07T21:52:38.888Z,4.50
2022-08-07T21:55:28.180Z,3.60
2022-08-07T21:58:35.587Z,4.50
2022-08-07T22:01:42.252Z,5.70
2022-08-07T22:04:17.616Z,4.40
2022-08-07T22:06:59.367Z,4.60
2022-08-07T22:09:34.778Z,4.20
2022-08-07T22:12:14.244Z,4.30
2022-08-07T22:16:39.329Z,4.40
2022-08-07T22:17:56.850Z,3.80
2022-08-07T22:20:41.975Z,5.20
2022-08-07T22:23:43.686Z,3.60
2022-08-07T22:26:23.460Z,4.20
2022-08-07T22:29:13.819Z,5.30
2022-08-07T22:31:55.902Z,4.90
2022-08-07T22:34:39.698Z,6.20
2022-08-07T22:38:03.311Z,3.80
2022-08-07T22:40:23.407Z,3.80
2022-08-07T22:42:57.760Z,4.90
2022-08-07T22:46:40.812Z,4.70
2022-08-07T22:48:55.603Z,4.50
2022-08-07T22:51:55.179Z,4.20
2022-08-07T22:54:49.042Z,4.90
2022-08-07T22:57:44.832Z,4.30
2022-08-07T23:00:21.462Z,4.60
2022-08-07T23:03:20.142Z,3.60
2022-08-07T23:06:15.344Z,5.20
2022-08-07T23:10:06.414Z,5.00
2022-08-07T23:12:32.722Z,3.80
2022-08-07T23:16:04.853Z,4.40
2022-08-07T23:18:32.038Z,4.20
2022-08-07T23:21:16.269Z,5.70
2022-08-07T23:24:11.128Z,4.50
2022-08-07T23:27:04.538Z,5.00
2022-08-07T23:30:38.060Z,4.80
2022-08-07T23:34:20.742Z,5.60
2022-08-07T23:36:22.863Z,5.10
2022-08-07T23:39:11.467Z,4.70
2022-08-07T23:42:01.599Z,5.70
2022-08-07T23:44:31.449Z,4.70
2022-08-07T23:47:14.345Z,5.10
2022-08-07T23:49:50.434Z,5.20
2022-08-07T23:52:59.569Z,4.60
2022-08-07T23:55:51.909Z,4.70
2022-08-07T23:58:50.056Z,4.60
